Time;durP1;ratioP1;P1;durP2;ratioP2;P2;SDS_P1;SDS_P2;PMS_P1;PMS_P2;Temp;Humidity;BMP_temperature;BMP_pressure;BME280_temperature;BME280_humidity;BME280_pressure;Samples;Min_cycle;Max_cycle;Signal;HPM_P1;HPM_P2
2021/04/03 00:00:49;;;;;;;11.63;5.93;;;;;;;8.42;100.00;103306.38;5032901;28;20044;-69
2021/04/03 00:03:16;;;;;;;9.50;5.50;;;;;;;8.40;100.00;103304.84;5033187;28;20048;-69
2021/04/03 00:05:43;;;;;;;14.57;5.80;;;;;;;8.39;100.00;103301.25;5033404;28;20040;-69
2021/04/03 00:08:10;;;;;;;7.05;5.80;;;;;;;8.36;100.00;103298.88;5033115;28;20041;-69
2021/04/03 00:10:58;;;;;;;7.95;5.70;;;;;;;8.34;100.00;103300.06;5033442;28;20423;-71
2021/04/03 00:13:29;;;;;;;12.63;5.93;;;;;;;8.32;100.00;103308.34;5032999;28;20037;-69
2021/04/03 00:15:54;;;;;;;10.75;6.45;;;;;;;8.28;100.00;103311.56;5032958;28;20168;-69
2021/04/03 00:18:20;;;;;;;8.98;6.07;;;;;;;8.26;100.00;103302.72;5032998;28;20154;-68
2021/04/03 00:20:48;;;;;;;11.43;6.07;;;;;;;8.23;100.00;103303.06;5033192;28;20041;-69
2021/04/03 00:23:15;;;;;;;11.88;6.68;;;;;;;8.19;100.00;103291.66;5032978;28;20099;-69
2021/04/03 00:25:41;;;;;;;6.40;5.40;;;;;;;8.17;100.00;103299.16;5032809;28;20037;-70
2021/04/03 00:28:07;;;;;;;7.70;5.45;;;;;;;8.14;100.00;103300.31;5032819;28;20091;-69
2021/04/03 00:30:34;;;;;;;11.95;6.03;;;;;;;8.14;100.00;103300.31;5032824;28;20038;-68
2021/04/03 00:33:02;;;;;;;11.43;6.63;;;;;;;8.12;100.00;103302.34;5032863;28;20037;-69
2021/04/03 00:35:36;;;;;;;9.20;6.30;;;;;;;8.09;100.00;103297.25;5032553;28;20037;-69
2021/04/03 00:38:04;;;;;;;11.15;5.75;;;;;;;8.07;100.00;103293.84;5032902;28;20033;-68
2021/04/03 00:40:42;;;;;;;8.07;6.22;;;;;;;8.07;100.00;103307.44;5031059;28;20546;-68
2021/04/03 00:43:20;;;;;;;8.70;5.80;;;;;;;8.01;100.00;103305.41;5032568;28;20039;-68
2021/04/03 00:45:46;;;;;;;13.80;5.80;;;;;;;8.00;100.00;103300.97;5032522;28;20029;-70
2021/04/03 00:48:13;;;;;;;12.77;5.95;;;;;;;7.93;100.00;103313.50;5032441;28;20124;-68
2021/04/03 00:50:44;;;;;;;11.50;6.05;;;;;;;7.94;100.00;103314.38;5032414;28;20069;-68
2021/04/03 00:53:13;;;;;;;9.95;5.45;;;;;;;7.92;100.00;103314.53;5032454;28;20048;-69
2021/04/03 00:55:39;;;;;;;13.43;6.32;;;;;;;7.91;100.00;103307.38;5032320;28;20109;-69
2021/04/03 00:58:06;;;;;;;9.48;5.88;;;;;;;7.91;100.00;103315.56;5032207;28;20037;-69
2021/04/03 01:00:32;;;;;;;11.43;6.55;;;;;;;7.90;100.00;103323.88;5032206;28;20037;-69
2021/04/03 01:02:57;;;;;;;9.13;5.70;;;;;;;7.87;100.00;103330.50;5032135;28;20057;-70
2021/04/03 01:05:25;;;;;;;8.50;5.97;;;;;;;7.85;100.00;103321.66;5032011;28;20122;-69
2021/04/03 01:07:51;;;;;;;9.98;5.80;;;;;;;7.82;100.00;103327.44;5031989;28;20040;-69
2021/04/03 01:10:25;;;;;;;9.60;6.25;;;;;;;7.79;100.00;103316.84;5032119;28;20029;-69
2021/04/03 01:13:15;;;;;;;14.20;5.97;;;;;;;7.79;100.00;103314.13;5031445;28;20045;-69
2021/04/03 01:16:20;;;;;;;7.88;6.13;;;;;;;7.74;100.00;103313.78;5031816;28;20037;-69
2021/04/03 01:18:54;;;;;;;9.95;6.20;;;;;;;7.73;100.00;103320.22;5031188;28;20072;-69
2021/04/03 01:21:43;;;;;;;9.27;6.03;;;;;;;7.71;100.00;103316.81;5032032;28;20033;-69
2021/04/03 01:24:26;;;;;;;16.13;6.07;;;;;;;7.69;100.00;103316.13;5031637;28;20095;-69
2021/04/03 01:27:10;;;;;;;9.50;6.13;;;;;;;7.67;100.00;103313.59;5031804;28;20033;-69
2021/04/03 01:30:06;;;;;;;11.30;6.38;;;;;;;7.66;100.00;103302.88;5031734;28;20060;-69
2021/04/03 01:32:44;;;;;;;6.63;5.60;;;;;;;7.64;100.00;103297.59;5031579;28;20111;-70
2021/04/03 01:35:15;;;;;;;9.38;5.47;;;;;;;7.63;100.00;103295.00;5031259;28;20037;-68
2021/04/03 01:38:05;;;;;;;11.55;6.45;;;;;;;7.63;100.00;103300.44;5031380;28;20048;-68
2021/04/03 01:40:34;;;;;;;12.23;6.05;;;;;;;7.63;100.00;103300.44;5031238;28;20476;-70
2021/04/03 01:43:16;;;;;;;9.13;5.85;;;;;;;7.60;100.00;103295.34;5031506;28;20071;-71
2021/04/03 01:45:43;;;;;;;8.15;5.68;;;;;;;7.60;100.00;103303.50;5031410;28;20029;-69
2021/04/03 01:48:10;;;;;;;11.95;5.72;;;;;;;7.56;100.00;103301.09;5031287;28;20265;-69
2021/04/03 01:50:39;;;;;;;12.32;5.85;;;;;;;7.55;100.00;103293.13;5031281;28;20033;-69
2021/04/03 01:53:05;;;;;;;14.75;5.93;;;;;;;7.53;100.00;103290.56;5031191;28;20400;-68
2021/04/03 01:55:33;;;;;;;13.23;6.38;;;;;;;7.51;100.00;103292.59;5031415;28;20052;-69
2021/04/03 01:57:59;;;;;;;11.63;6.10;;;;;;;7.51;100.00;103287.16;5013315;28;20045;-68
2021/04/03 02:00:28;;;;;;;11.57;5.60;;;;;;;7.48;100.00;103286.63;5031293;28;20438;-68
2021/04/03 02:02:54;;;;;;;7.45;5.70;;;;;;;7.47;100.00;103282.22;5031219;28;20075;-69
2021/04/03 02:05:21;;;;;;;10.90;5.90;;;;;;;7.46;100.00;103286.78;5030951;28;20041;-69
2021/04/03 02:07:49;;;;;;;7.38;5.28;;;;;;;7.46;100.00;103291.34;5031012;28;20075;-67
2021/04/03 02:10:18;;;;;;;6.53;5.22;;;;;;;7.45;100.00;103282.34;5031014;28;20041;-69
2021/04/03 02:12:45;;;;;;;13.20;6.22;;;;;;;7.44;100.00;103286.06;5029824;28;20033;-69
2021/04/03 02:15:12;;;;;;;13.48;5.95;;;;;;;7.44;100.00;103280.63;5030964;28;20037;-69
2021/04/03 02:17:43;;;;;;;11.98;6.05;;;;;;;7.44;100.00;103285.22;5031029;28;20034;-69
2021/04/03 02:20:10;;;;;;;10.68;5.82;;;;;;;7.44;100.00;103291.50;5030951;28;20118;-69
2021/04/03 02:22:36;;;;;;;8.23;5.95;;;;;;;7.45;100.00;103304.09;5030690;28;20060;-69
2021/04/03 02:25:05;;;;;;;9.68;5.72;;;;;;;7.46;100.00;103305.81;5030714;28;20044;-70
2021/04/03 02:27:31;;;;;;;8.60;5.85;;;;;;;7.46;100.00;103297.66;5029540;28;20426;-69
2021/04/03 02:30:11;;;;;;;9.15;5.88;;;;;;;7.46;100.00;103305.81;5029533;28;20041;-69
2021/04/03 02:32:41;;;;;;;8.98;6.28;;;;;;;7.47;100.00;103295.81;5030974;28;20041;-70
2021/04/03 02:35:08;;;;;;;9.45;5.60;;;;;;;7.45;100.00;103298.66;5030717;28;20737;-68
2021/04/03 02:37:33;;;;;;;11.48;6.35;;;;;;;7.45;100.00;103293.22;5030709;28;20033;-69
2021/04/03 02:39:59;;;;;;;9.27;6.32;;;;;;;7.44;100.00;103312.41;5030670;28;20057;-69
2021/04/03 02:42:27;;;;;;;10.50;6.03;;;;;;;7.42;100.00;103314.44;5030736;28;20065;-68
2021/04/03 02:44:57;;;;;;;10.48;6.03;;;;;;;7.41;100.00;103308.16;5030532;28;20044;-68
2021/04/03 02:47:30;;;;;;;8.82;5.85;;;;;;;7.41;100.00;103302.72;5030732;28;20492;-69
2021/04/03 02:50:03;;;;;;;9.88;5.38;;;;;;;7.41;100.00;103310.88;5030813;28;20037;-68
2021/04/03 02:52:33;;;;;;;10.65;5.82;;;;;;;7.40;100.00;103311.88;5030708;28;20503;-69
2021/04/03 02:55:02;;;;;;;9.63;6.60;;;;;;;7.39;100.00;103310.19;5030362;28;20049;-69
2021/04/03 02:57:29;;;;;;;10.32;4.55;;;;;;;7.39;100.00;103320.22;5030585;28;20132;-69
2021/04/03 02:59:57;;;;;;;9.20;5.72;;;;;;;7.39;100.00;103298.47;5030505;28;20044;-69
2021/04/03 03:02:26;;;;;;;11.60;5.90;;;;;;;7.40;100.00;103306.44;5030538;28;20033;-68
2021/04/03 03:04:54;;;;;;;7.90;5.10;;;;;;;7.38;100.00;103304.91;5030446;28;20037;-68
2021/04/03 03:07:23;;;;;;;9.55;5.72;;;;;;;7.38;100.00;103302.19;5029208;28;20148;-69
2021/04/03 03:09:50;;;;;;;8.15;4.50;;;;;;;7.38;100.00;103303.03;5030442;28;20116;-68
2021/04/03 03:12:21;;;;;;;11.35;5.40;;;;;;;7.36;100.00;103299.63;5030702;28;20064;-68
2021/04/03 03:14:48;;;;;;;7.97;5.30;;;;;;;7.37;100.00;103304.06;5030165;28;20113;-68
2021/04/03 03:17:15;;;;;;;9.70;6.30;;;;;;;7.39;100.00;103307.47;5030347;28;20041;-68
2021/04/03 03:19:41;;;;;;;10.23;5.20;;;;;;;7.40;100.00;103306.44;5029108;28;20044;-68
2021/04/03 03:22:08;;;;;;;9.05;4.72;;;;;;;7.41;100.00;103305.44;5030540;28;20120;-68
2021/04/03 03:24:35;;;;;;;9.98;4.85;;;;;;;7.42;100.00;103322.59;5030258;28;20041;-69
2021/04/03 03:27:02;;;;;;;10.15;4.72;;;;;;;7.41;100.00;103302.72;5030288;28;20033;-69
2021/04/03 03:29:30;;;;;;;11.05;5.18;;;;;;;7.42;100.00;103307.13;5028810;28;20486;-70
2021/04/03 03:31:56;;;;;;;9.43;5.25;;;;;;;7.43;100.00;103317.00;5012732;28;20037;-68
2021/04/03 03:34:22;;;;;;;7.95;4.80;;;;;;;7.43;100.00;103317.00;5030626;28;20460;-68
2021/04/03 03:36:48;;;;;;;10.77;5.20;;;;;;;7.44;100.00;103315.13;5033772;28;20037;-71
2021/04/03 03:39:14;;;;;;;11.80;6.15;;;;;;;7.42;100.00;103309.84;5033573;28;20114;-69
2021/04/03 03:41:40;;;;;;;8.23;4.53;;;;;;;7.41;100.00;103308.16;5033759;28;20045;-69
2021/04/03 03:44:07;;;;;;;9.73;4.85;;;;;;;7.39;100.00;103304.75;5033478;28;20040;-69
2021/04/03 03:46:33;;;;;;;12.43;4.65;;;;;;;7.41;100.00;103324.47;5033522;28;20098;-69
2021/04/03 03:49:01;;;;;;;9.40;4.47;;;;;;;7.39;100.00;103310.19;5033525;28;20037;-69
2021/04/03 03:51:27;;;;;;;9.73;4.65;;;;;;;7.39;100.00;103312.91;5033580;28;20483;-69
2021/04/03 03:53:53;;;;;;;9.63;5.47;;;;;;;7.38;100.00;103308.47;5033470;28;20434;-70
2021/04/03 03:56:18;;;;;;;9.85;5.25;;;;;;;7.36;100.00;103315.94;5032078;28;20087;-69
2021/04/03 03:58:45;;;;;;;13.18;4.93;;;;;;;7.35;100.00;103321.56;5033371;28;20484;-69
2021/04/03 04:01:10;;;;;;;10.50;5.55;;;;;;;7.32;100.00;103325.44;5033262;28;20041;-68
2021/04/03 04:03:37;;;;;;;8.60;5.00;;;;;;;7.29;100.00;103325.78;5033162;28;20040;-70
2021/04/03 04:06:04;;;;;;;10.60;5.40;;;;;;;7.25;100.00;103324.34;5033257;28;20033;-69
2021/04/03 04:08:31;;;;;;;13.15;4.95;;;;;;;7.21;100.00;103322.97;5033156;28;20511;-69
2021/04/03 04:10:56;;;;;;;6.47;4.78;;;;;;;7.20;100.00;103327.56;5033290;28;20041;-68
2021/04/03 04:13:22;;;;;;;9.85;5.38;;;;;;;7.19;100.00;103319.56;5032997;28;20045;-69
2021/04/03 04:15:48;;;;;;;16.48;6.45;;;;;;;7.17;100.00;103321.59;5033070;28;20045;-68
2021/04/03 04:18:14;;;;;;;10.48;5.53;;;;;;;7.17;100.00;103313.44;5032969;28;20038;-68
2021/04/03 04:20:40;;;;;;;10.90;5.63;;;;;;;7.16;100.00;103326.19;5033013;28;20048;-69
2021/04/03 04:23:05;;;;;;;14.15;6.10;;;;;;;7.17;100.00;103327.03;5032995;28;20033;-68
2021/04/03 04:25:31;;;;;;;12.68;5.78;;;;;;;7.15;100.00;103323.63;5032864;28;20514;-70
2021/04/03 04:27:57;;;;;;;13.98;6.03;;;;;;;7.13;100.00;103331.09;5032992;28;20471;-68
2021/04/03 04:30:23;;;;;;;12.60;5.47;;;;;;;7.12;100.00;103341.09;5032816;28;20041;-68
2021/04/03 04:32:48;;;;;;;9.80;5.65;;;;;;;7.12;100.00;103332.97;5032723;28;20037;-68
2021/04/03 04:35:15;;;;;;;11.93;5.70;;;;;;;7.11;100.00;103328.50;5032690;28;20037;-69
2021/04/03 04:37:42;;;;;;;15.35;6.78;;;;;;;7.09;100.00;103335.09;5032659;28;20029;-70
2021/04/03 04:40:09;;;;;;;12.70;5.75;;;;;;;7.10;100.00;103336.81;5031171;28;20444;-67
2021/04/03 04:42:41;;;;;;;11.43;6.32;;;;;;;7.08;100.00;103328.81;5032624;28;20056;-68
2021/04/03 04:45:09;;;;;;;13.57;6.78;;;;;;;7.07;100.00;103332.56;5031184;28;20040;-70
2021/04/03 04:47:34;;;;;;;15.80;6.55;;;;;;;7.06;100.00;103340.88;5032570;28;20552;-69
2021/04/03 04:50:00;;;;;;;18.70;6.97;;;;;;;7.04;100.00;103338.31;5032383;28;20120;-68
2021/04/03 04:52:26;;;;;;;9.68;5.65;;;;;;;7.03;100.00;103335.75;5032351;28;20103;-70
2021/04/03 04:54:52;;;;;;;15.65;5.75;;;;;;;7.02;100.00;103339.47;5032231;28;20033;-68
2021/04/03 04:57:17;;;;;;;17.70;6.72;;;;;;;7.00;100.00;103336.06;5032199;28;20041;-69
2021/04/03 04:59:43;;;;;;;8.25;5.55;;;;;;;6.99;100.00;103339.81;5032302;28;20033;-68
2021/04/03 05:02:08;;;;;;;10.48;4.57;;;;;;;6.98;100.00;103340.81;5032240;28;20483;-69
2021/04/03 05:04:34;;;;;;;8.85;5.38;;;;;;;6.98;100.00;103348.97;5032099;28;20526;-68
2021/04/03 05:07:00;;;;;;;7.32;5.10;;;;;;;6.94;100.00;103343.84;5032138;28;20124;-68
2021/04/03 05:09:25;;;;;;;10.35;5.78;;;;;;;6.95;100.00;103342.00;5032006;28;20530;-68
2021/04/03 05:11:51;;;;;;;9.82;5.18;;;;;;;6.92;100.00;103345.84;5032050;28;20132;-69
2021/04/03 05:14:17;;;;;;;10.35;5.32;;;;;;;6.92;100.00;103336.84;5031735;28;20108;-68
2021/04/03 05:16:42;;;;;;;10.75;5.70;;;;;;;6.88;100.00;103344.47;5032016;28;20044;-69
2021/04/03 05:19:08;;;;;;;10.88;5.22;;;;;;;6.86;100.00;103349.19;5031858;28;20041;-68
2021/04/03 05:21:33;;;;;;;12.20;5.55;;;;;;;6.85;100.00;103339.34;5031905;28;20080;-68
2021/04/03 05:23:59;;;;;;;10.55;5.43;;;;;;;6.82;100.00;103347.81;5031720;28;20037;-68
2021/04/03 05:26:25;;;;;;;12.15;5.35;;;;;;;6.80;100.00;103352.56;5031724;28;20033;-68
2021/04/03 05:28:50;;;;;;;12.93;6.30;;;;;;;6.79;100.00;103356.28;5031482;28;20065;-68
2021/04/03 05:31:20;;;;;;;11.18;5.60;;;;;;;6.78;100.00;103353.72;5031388;28;20391;-70
2021/04/03 05:33:49;;;;;;;16.42;5.78;;;;;;;6.75;100.00;103354.84;5031478;28;20460;-70
2021/04/03 05:36:15;;;;;;;8.52;5.00;;;;;;;6.72;100.00;103344.31;5031623;28;20029;-68
2021/04/03 05:38:41;;;;;;;13.70;5.80;;;;;;;6.72;100.00;103348.88;5031563;28;20045;-70
2021/04/03 05:41:08;;;;;;;17.38;6.30;;;;;;;6.70;100.00;103346.34;5031179;28;20107;-68
2021/04/03 05:43:38;;;;;;;11.18;5.03;;;;;;;6.67;100.00;103352.06;5031265;28;20052;-68
2021/04/03 05:46:03;;;;;;;20.73;6.00;;;;;;;6.64;100.00;103342.38;5031355;28;20100;-70
2021/04/03 05:48:30;;;;;;;15.95;6.07;;;;;;;6.63;100.00;103346.13;5031459;28;20510;-68
2021/04/03 05:50:59;;;;;;;18.90;6.63;;;;;;;6.62;100.00;103354.41;5029907;28;20041;-69
2021/04/03 05:53:26;;;;;;;15.60;6.10;;;;;;;6.60;100.00;103348.28;5029904;28;20156;-68
2021/04/03 05:55:57;;;;;;;11.38;5.95;;;;;;;6.59;100.00;103343.84;5029784;28;20046;-69
2021/04/03 05:58:24;;;;;;;19.63;6.82;;;;;;;6.57;100.00;103345.84;5030724;28;20082;-68
2021/04/03 06:00:54;;;;;;;17.05;7.20;;;;;;;6.55;100.00;103353.31;5031250;28;20058;-69
2021/04/03 06:03:20;;;;;;;18.90;6.45;;;;;;;6.55;100.00;103354.16;5031044;28;20440;-69
2021/04/03 06:05:49;;;;;;;15.15;6.32;;;;;;;6.55;100.00;103343.28;5031232;28;20111;-68
2021/04/03 06:08:14;;;;;;;17.42;5.88;;;;;;;6.55;100.00;103342.44;5031043;28;20033;-69
2021/04/03 06:10:40;;;;;;;18.48;6.40;;;;;;;6.55;100.00;103359.59;5031169;28;20076;-68
2021/04/03 06:13:18;;;;;;;20.67;6.93;;;;;;;6.55;100.00;103356.03;5030973;28;20029;-69
2021/04/03 06:15:45;;;;;;;15.38;6.78;;;;;;;6.54;100.00;103354.31;5030881;28;20033;-68
2021/04/03 06:18:12;;;;;;;15.35;5.97;;;;;;;6.55;100.00;103353.31;5030877;28;20075;-68
2021/04/03 06:20:42;;;;;;;16.98;6.20;;;;;;;6.55;100.00;103364.16;5030902;28;20496;-69
2021/04/03 06:23:10;;;;;;;15.15;5.82;;;;;;;6.55;100.00;103358.75;5030869;28;20144;-68
2021/04/03 06:25:58;;;;;;;15.88;7.28;;;;;;;6.56;100.00;103360.44;5030727;28;20025;-69
2021/04/03 06:28:29;;;;;;;15.98;6.68;;;;;;;6.57;100.00;103367.56;5030938;28;20091;-68
2021/04/03 06:31:16;;;;;;;15.57;5.72;;;;;;;6.58;100.00;103363.84;5031261;28;20060;-68
2021/04/03 06:33:42;;;;;;;11.25;6.35;;;;;;;6.59;100.00;103360.13;5030740;28;20049;-68
2021/04/03 06:36:08;;;;;;;16.10;5.82;;;;;;;6.61;100.00;103369.84;5030664;28;20091;-68
2021/04/03 06:38:35;;;;;;;11.63;5.05;;;;;;;6.63;100.00;103362.41;5030924;28;20087;-71
2021/04/03 06:41:20;;;;;;;16.42;5.85;;;;;;;6.67;100.00;103352.06;5030655;28;20392;-69
2021/04/03 06:44:09;;;;;;;22.33;6.00;;;;;;;6.70;100.00;103370.78;5030612;28;20033;-68
2021/04/03 06:46:40;;;;;;;12.30;5.32;;;;;;;6.73;100.00;103366.91;5030867;28;20041;-68
2021/04/03 06:49:06;;;;;;;12.40;5.07;;;;;;;6.75;100.00;103365.72;5030722;28;20547;-68
2021/04/03 06:51:32;;;;;;;14.35;5.28;;;;;;;6.79;100.00;103378.00;5030585;28;20044;-70
2021/04/03 06:53:59;;;;;;;12.63;5.30;;;;;;;6.83;100.00;103371.25;5030541;28;20040;-68
2021/04/03 06:56:31;;;;;;;14.07;5.05;;;;;;;6.89;100.00;103372.47;5030452;28;20041;-70
2021/04/03 06:59:12;;;;;;;19.48;5.00;;;;;;;6.94;100.00;103375.56;5030476;28;20029;-69
2021/04/03 07:01:52;;;;;;;15.07;5.57;;;;;;;6.99;100.00;103361.53;5030546;28;20411;-69
2021/04/03 07:04:21;;;;;;;17.27;5.40;;;;;;;7.04;100.00;103364.63;5030419;28;20092;-70
2021/04/03 07:06:49;;;;;;;14.98;5.05;;;;;;;7.08;100.00;103360.59;5030435;28;20484;-68
2021/04/03 07:09:17;;;;;;;13.93;5.00;;;;;;;7.13;100.00;103367.28;5030748;28;20078;-69
2021/04/03 07:11:43;;;;;;;21.48;5.65;;;;;;;7.18;100.00;103366.78;5034479;28;20041;-68
2021/04/03 07:14:10;;;;;;;12.82;4.63;;;;;;;7.23;100.00;103369.88;5034283;28;20033;-69
2021/04/03 07:16:36;;;;;;;14.27;5.20;;;;;;;7.30;100.00;103381.84;5034164;28;20029;-68
2021/04/03 07:19:05;;;;;;;17.60;4.53;;;;;;;7.36;100.00;103378.50;5034099;28;20052;-69
2021/04/03 07:21:30;;;;;;;16.55;4.10;;;;;;;7.42;100.00;103382.44;5034144;28;20035;-68
2021/04/03 07:23:59;;;;;;;17.80;4.40;;;;;;;7.48;100.00;103374.50;5032604;28;20037;-68
2021/04/03 07:26:25;;;;;;;17.17;4.00;;;;;;;7.53;100.00;103377.59;5034048;28;20438;-69
2021/04/03 07:28:51;;;;;;;12.77;4.50;;;;;;;7.62;100.00;103375.75;5034129;28;20034;-68
2021/04/03 07:31:40;;;;;;;20.08;5.20;;;;;;;7.71;100.00;103382.13;5034032;28;20168;-68
2021/04/03 07:34:07;;;;;;;15.80;4.38;;;;;;;7.77;100.00;103367.84;5032758;28;20442;-69
2021/04/03 07:36:35;;;;;;;12.68;4.75;;;;;;;7.83;100.00;103383.56;5033742;28;20048;-71
2021/04/03 07:39:03;;;;;;;14.95;4.10;;;;;;;7.89;100.00;103379.31;5034008;28;20033;-69
2021/04/03 07:41:36;;;;;;;13.70;4.15;;;;;;;7.90;100.00;103373.72;5033605;28;20053;-69
2021/04/03 07:44:13;;;;;;;15.27;5.25;;;;;;;7.99;100.00;103372.75;5033684;28;20550;-69
2021/04/03 07:46:42;;;;;;;16.35;4.43;;;;;;;8.06;100.00;103379.25;5032567;28;20395;-68
2021/04/03 07:49:09;;;;;;;11.27;4.05;;;;;;;8.15;100.00;103377.38;5033707;28;20384;-68
2021/04/03 07:51:34;;;;;;;15.45;4.75;;;;;;;8.25;100.00;103378.13;5033582;28;20037;-69
2021/04/03 07:54:02;;;;;;;14.50;4.68;;;;;;;8.38;100.00;103388.59;5033427;28;20068;-69
2021/04/03 07:56:49;;;;;;;13.63;4.90;;;;;;;8.52;100.00;103384.38;5033335;28;20041;-68
2021/04/03 07:59:14;;;;;;;17.27;5.20;;;;;;;8.57;100.00;103388.28;5033486;28;20045;-69
2021/04/03 08:01:40;;;;;;;12.68;4.25;;;;;;;8.67;100.00;103388.97;5033572;28;20047;-68
2021/04/03 08:04:08;;;;;;;16.65;4.13;;;;;;;8.73;100.00;103393.78;5032982;28;20140;-69
2021/04/03 08:06:38;;;;;;;11.15;3.85;;;;;;;8.75;100.00;103402.63;5033265;28;20091;-69
2021/04/03 08:09:10;;;;;;;13.25;4.93;;;;;;;8.77;100.00;103405.19;5032964;28;20378;-69
2021/04/03 08:11:36;;;;;;;17.88;6.00;;;;;;;8.76;100.00;103388.00;5033076;28;20037;-69
2021/04/03 08:14:03;;;;;;;13.88;4.82;;;;;;;8.77;100.00;103395.16;5032892;28;20033;-68
2021/04/03 08:16:30;;;;;;;13.43;5.40;;;;;;;8.71;100.00;103394.97;5032990;28;20653;-68
2021/04/03 08:18:58;;;;;;;15.65;6.07;;;;;;;8.64;100.00;103400.22;5032898;28;20037;-69
2021/04/03 08:21:27;;;;;;;11.85;5.10;;;;;;;8.62;100.00;103396.81;5032485;28;20033;-70
2021/04/03 08:23:55;;;;;;;17.73;5.65;;;;;;;8.68;100.00;103412.50;5032800;28;20071;-68
2021/04/03 08:26:26;;;;;;;19.60;5.25;;;;;;;8.74;100.00;103417.28;5032937;28;20534;-68
2021/04/03 08:28:52;;;;;;;15.63;5.35;;;;;;;8.79;100.00;103415.94;5032762;28;20506;-69
2021/04/03 08:31:21;;;;;;;14.27;5.43;;;;;;;8.84;100.00;103410.81;5032723;28;20112;-68
2021/04/03 08:33:48;;;;;;;17.02;5.82;;;;;;;8.93;100.00;103412.53;5032611;28;20043;-69
2021/04/03 08:36:20;;;;;;;16.75;5.88;;;;;;;8.98;100.00;103410.16;5032561;28;20124;-68
2021/04/03 08:38:46;;;;;;;11.68;5.18;;;;;;;8.98;100.00;103410.16;5032686;28;20048;-69
2021/04/03 08:41:22;;;;;;;12.32;5.05;;;;;;;9.00;100.00;103406.25;5032450;28;20057;-68
2021/04/03 08:43:49;;;;;;;14.18;6.03;;;;;;;9.03;100.00;103396.91;5032547;28;20064;-69
2021/04/03 08:46:15;;;;;;;15.45;5.00;;;;;;;9.03;100.00;103416.84;5031135;28;20095;-68
2021/04/03 08:48:43;;;;;;;19.27;4.93;;;;;;;9.04;100.00;103417.69;5032579;28;20051;-68
2021/04/03 08:51:10;;;;;;;15.85;5.63;;;;;;;9.11;100.00;103410.53;5032322;28;20175;-68
2021/04/03 08:53:39;;;;;;;14.60;5.43;;;;;;;9.10;100.00;103417.00;5032199;28;20385;-70
2021/04/03 08:56:06;;;;;;;16.60;4.93;;;;;;;9.20;100.00;103423.16;5032366;28;20037;-68
2021/04/03 08:58:33;;;;;;;10.35;5.00;;;;;;;9.29;100.00;103421.25;5030945;28;20373;-68
2021/04/03 09:00:59;;;;;;;17.15;5.97;;;;;;;9.32;100.00;103421.75;5032671;28;20038;-70
2021/04/03 09:03:26;;;;;;;18.30;6.10;;;;;;;9.32;100.00;103421.75;5031942;28;20050;-69
2021/04/03 09:05:53;;;;;;;15.32;5.93;;;;;;;9.36;100.00;103417.66;5032231;28;20033;-69
2021/04/03 09:08:23;;;;;;;21.02;6.07;;;;;;;9.40;100.00;103431.84;5032060;28;20475;-69
2021/04/03 09:11:00;;;;;;;16.35;5.93;;;;;;;9.46;100.00;103444.78;5032034;28;20037;-68
2021/04/03 09:13:36;;;;;;;20.60;6.78;;;;;;;9.58;100.00;103448.88;5031974;28;20034;-69
2021/04/03 09:16:07;;;;;;;14.52;6.80;;;;;;;9.66;100.00;103445.28;5031868;28;20423;-68
2021/04/03 09:18:33;;;;;;;14.88;6.22;;;;;;;9.75;100.00;103433.34;5031969;28;20041;-68
2021/04/03 09:20:58;;;;;;;16.30;5.72;;;;;;;9.85;100.00;103442.16;5032051;28;20086;-68
2021/04/03 09:23:24;;;;;;;15.85;5.93;;;;;;;10.02;100.00;103444.88;5030500;28;20100;-69
2021/04/03 09:26:01;;;;;;;19.80;7.78;;;;;;;10.24;100.00;103438.69;5031697;28;20044;-69
2021/04/03 09:28:41;;;;;;;10.85;5.32;;;;;;;10.41;100.00;103434.00;5031587;28;20519;-68
2021/04/03 09:31:10;;;;;;;23.50;6.22;;;;;;;10.44;100.00;103442.72;5030308;28;20373;-69
2021/04/03 09:33:47;;;;;;;18.80;6.85;;;;;;;10.37;100.00;103438.97;5030746;28;20029;-68
2021/04/03 09:36:15;;;;;;;16.58;5.30;;;;;;;10.36;100.00;103442.72;5031492;28;20114;-69
2021/04/03 09:38:41;;;;;;;19.17;6.78;;;;;;;10.40;100.00;103437.75;5031587;28;20483;-67
2021/04/03 09:41:22;;;;;;;16.35;6.22;;;;;;;10.45;100.00;103436.22;5031054;28;20514;-68
2021/04/03 09:43:47;;;;;;;19.70;6.78;;;;;;;10.53;100.00;103441.63;5031224;28;20095;-68
2021/04/03 09:46:13;;;;;;;17.23;6.07;;;;;;;10.71;100.00;103440.50;5031396;28;20045;-67
2021/04/03 09:48:41;;;;;;;16.10;6.20;;;;;;;10.81;100.00;103447.47;5031157;28;20041;-67
2021/04/03 09:51:07;;;;;;;22.15;6.32;;;;;;;10.83;100.00;103439.94;5031262;28;20041;-68
2021/04/03 09:53:33;;;;;;;15.85;7.28;;;;;;;10.78;100.00;103452.44;5031188;28;20502;-68
2021/04/03 09:55:59;;;;;;;18.63;6.82;;;;;;;10.62;100.00;103447.06;5029878;28;20038;-70
2021/04/03 09:58:25;;;;;;;20.67;7.28;;;;;;;10.48;100.00;103449.53;5031185;28;20128;-69
2021/04/03 10:00:52;;;;;;;19.23;6.60;;;;;;;10.32;100.00;103441.38;5030049;28;20033;-69
2021/04/03 10:03:17;;;;;;;21.20;7.40;;;;;;;10.16;100.00;103441.41;5031114;28;20034;-69
2021/04/03 10:05:43;;;;;;;15.85;7.25;;;;;;;10.03;100.00;103443.84;5029754;28;20049;-69
2021/04/03 10:08:09;;;;;;;22.70;7.57;;;;;;;9.83;100.00;103441.50;5030978;28;20033;-68
2021/04/03 10:10:34;;;;;;;18.65;8.23;;;;;;;9.68;100.00;103444.06;5031112;28;20041;-69
2021/04/03 10:13:00;;;;;;;22.27;7.38;;;;;;;9.49;100.00;103454.50;5030985;28;20567;-69
2021/04/03 10:15:26;;;;;;;18.30;7.28;;;;;;;9.39;100.00;103448.38;5029332;28;20045;-68
2021/04/03 10:17:51;;;;;;;22.45;7.35;;;;;;;9.58;100.00;103450.75;5031256;28;20395;-68
2021/04/03 10:20:18;;;;;;;14.98;6.45;;;;;;;9.78;100.00;103443.06;5030968;28;20037;-68
2021/04/03 10:22:45;;;;;;;16.75;6.85;;;;;;;9.96;100.00;103452.75;5030805;28;20041;-69
2021/04/03 10:25:12;;;;;;;18.77;6.70;;;;;;;10.24;100.00;103452.38;5030720;28;20082;-68
2021/04/03 10:27:38;;;;;;;20.27;7.28;;;;;;;10.47;100.00;103444.22;5030942;28;20492;-68
2021/04/03 10:30:05;;;;;;;19.58;6.45;;;;;;;10.67;100.00;103445.50;5030628;28;20048;-69
2021/04/03 10:32:30;;;;;;;24.27;7.28;;;;;;;10.83;100.00;103444.56;5030545;28;20037;-69
2021/04/03 10:34:56;;;;;;;20.15;6.95;;;;;;;11.04;100.00;103449.38;5030589;28;20033;-71
2021/04/03 10:37:22;;;;;;;15.85;6.30;;;;;;;11.21;100.00;103452.84;5030578;28;20563;-68
2021/04/03 10:39:48;;;;;;;16.73;7.10;;;;;;;11.38;100.00;103449.78;5030034;28;20364;-69
2021/04/03 10:42:14;;;;;;;15.57;5.97;;;;;;;11.53;100.00;103452.56;5028984;28;20037;-69
2021/04/03 10:44:39;;;;;;;20.95;7.45;;;;;;;11.65;99.12;103448.38;5033471;28;20049;-69
2021/04/03 10:47:05;;;;;;;16.55;6.53;;;;;;;11.68;98.03;103447.97;5033289;28;20030;-70
2021/04/03 10:49:32;;;;;;;20.02;7.13;;;;;;;11.61;97.76;103452.47;5034687;28;20041;-69
2021/04/03 10:51:58;;;;;;;15.55;5.90;;;;;;;11.78;97.49;103454.06;5034748;28;20040;-68
2021/04/03 10:54:25;;;;;;;21.75;7.10;;;;;;;11.90;95.77;103464.56;5033090;28;20037;-70
2021/04/03 10:56:53;;;;;;;18.80;6.68;;;;;;;11.91;92.25;103449.84;5033175;28;20381;-68
2021/04/03 10:59:19;;;;;;;19.35;6.65;;;;;;;11.97;92.74;103460.03;5034840;28;20030;-68
2021/04/03 11:01:44;;;;;;;18.67;6.90;;;;;;;11.99;92.50;103463.47;5033207;28;20037;-71
2021/04/03 11:04:10;;;;;;;20.35;7.35;;;;;;;12.05;92.55;103469.03;5034234;28;20065;-69
2021/04/03 11:06:36;;;;;;;18.02;6.90;;;;;;;12.08;95.02;103456.84;5034255;28;20392;-69
2021/04/03 11:09:02;;;;;;;19.08;6.88;;;;;;;12.05;95.22;103462.69;5034340;28;20040;-69
2021/04/03 11:11:29;;;;;;;15.05;6.35;;;;;;;12.02;95.30;103455.72;5034229;28;20049;-69
2021/04/03 11:13:55;;;;;;;17.15;7.00;;;;;;;12.02;93.83;103454.88;5034057;28;20051;-69
2021/04/03 11:16:21;;;;;;;18.65;6.60;;;;;;;11.88;95.05;103469.38;5034175;28;20488;-71
2021/04/03 11:18:46;;;;;;;22.02;7.13;;;;;;;11.72;93.73;103457.53;5034186;28;20124;-70
2021/04/03 11:21:12;;;;;;;27.25;7.35;;;;;;;11.61;95.82;103466.16;5034049;28;20044;-68
2021/04/03 11:23:38;;;;;;;17.65;6.45;;;;;;;11.61;96.69;103470.78;5033991;28;20048;-69
2021/04/03 11:26:04;;;;;;;21.17;7.38;;;;;;;11.85;93.57;103458.81;5034328;28;20030;-71